sensor_id;sensor_type;location;lat;lon;timestamp;pressure;altitude;pressure_sealevel;temperature;humidity
81812;BME280;71243;51.848;5.768;2024-02-04T00:02:13;102404.94;;;10.97;100.00
81812;BME280;71243;51.848;5.768;2024-02-04T00:04:38;102398.03;;;10.94;100.00
81812;BME280;71243;51.848;5.768;2024-02-04T00:07:03;102402.22;;;10.86;100.00
81812;BME280;71243;51.848;5.768;2024-02-04T00:09:29;102403.88;;;10.87;100.00
81812;BME280;71243;51.848;5.768;2024-02-04T00:11:54;102396.56;;;10.90;100.00
81812;BME280;71243;51.848;5.768;2024-02-04T00:14:19;102408.00;;;10.91;100.00
81812;BME280;71243;51.848;5.768;2024-02-04T00:16:44;102393.09;;;10.90;100.00
81812;BME280;71243;51.848;5.768;2024-02-04T00:19:10;102394.78;;;10.91;100.00
81812;BME280;71243;51.848;5.768;2024-02-04T00:21:35;102393.59;;;10.95;100.00
81812;BME280;71243;51.848;5.768;2024-02-04T00:24:00;102402.16;;;10.98;100.00
81812;BME280;71243;51.848;5.768;2024-02-04T00:26:26;102400.06;;;10.91;100.00
81812;BME280;71243;51.848;5.768;2024-02-04T00:28:51;102398.59;;;10.87;100.00
81812;BME280;71243;51.848;5.768;2024-02-04T00:31:16;102399.56;;;10.86;100.00
81812;BME280;71243;51.848;5.768;2024-02-04T00:33:42;102409.78;;;10.90;100.00
81812;BME280;71243;51.848;5.768;2024-02-04T00:36:07;102406.31;;;10.90;100.00
81812;BME280;71243;51.848;5.768;2024-02-04T00:38:32;102397.53;;;10.89;100.00
81812;BME280;71243;51.848;5.768;2024-02-04T00:40:58;102395.94;;;10.87;100.00
81812;BME280;71243;51.848;5.768;2024-02-04T00:43:26;102406.31;;;10.90;100.00
81812;BME280;71243;51.848;5.768;2024-02-04T00:45:51;102403.88;;;10.87;100.00
81812;BME280;71243;51.848;5.768;2024-02-04T00:48:16;102411.72;;;10.88;100.00
81812;BME280;71243;51.848;5.768;2024-02-04T00:50:42;102402.84;;;10.89;100.00
81812;BME280;71243;51.848;5.768;2024-02-04T00:53:07;102401.72;;;10.81;100.00
81812;BME280;71243;51.848;5.768;2024-02-04T00:55:32;102407.28;;;10.89;100.00
81812;BME280;71243;51.848;5.768;2024-02-04T00:57:57;102411.38;;;10.93;100.00
81812;BME280;71243;51.848;5.768;2024-02-04T01:00:23;102394.03;;;10.89;100.00
81812;BME280;71243;51.848;5.768;2024-02-04T01:02:48;102405.28;;;10.80;100.00
81812;BME280;71243;51.848;5.768;2024-02-04T01:05:13;102402.22;;;10.86;100.00
81812;BME280;71243;51.848;5.768;2024-02-04T01:07:38;102397.03;;;10.84;100.00
81812;BME280;71243;51.848;5.768;2024-02-04T01:10:04;102400.00;;;10.80;100.00
81812;BME280;71243;51.848;5.768;2024-02-04T01:12:29;102396.19;;;10.84;100.00
81812;BME280;71243;51.848;5.768;2024-02-04T01:14:55;102398.41;;;10.90;100.00
81812;BME280;71243;51.848;5.768;2024-02-04T01:17:20;102398.72;;;10.85;100.00
81812;BME280;71243;51.848;5.768;2024-02-04T01:19:45;102395.94;;;10.87;100.00
81812;BME280;71243;51.848;5.768;2024-02-04T01:22:13;102394.16;;;10.87;100.00
81812;BME280;71243;51.848;5.768;2024-02-04T01:24:38;102405.97;;;10.94;100.00
81812;BME280;71243;51.848;5.768;2024-02-04T01:27:04;102400.19;;;10.89;100.00
81812;BME280;71243;51.848;5.768;2024-02-04T01:29:29;102399.97;;;10.92;100.00
81812;BME280;71243;51.848;5.768;2024-02-04T01:31:54;102399.13;;;10.92;100.00
81812;BME280;71243;51.848;5.768;2024-02-04T01:34:19;102398.03;;;10.94;100.00
81812;BME280;71243;51.848;5.768;2024-02-04T01:36:45;102397.66;;;10.88;100.00
81812;BME280;71243;51.848;5.768;2024-02-04T01:39:10;102387.59;;;10.93;100.00
81812;BME280;71243;51.848;5.768;2024-02-04T01:41:35;102393.00;;;10.91;100.00
81812;BME280;71243;51.848;5.768;2024-02-04T01:44:01;102401.53;;;10.95;100.00
81812;BME280;71243;51.848;5.768;2024-02-04T01:46:26;102401.81;;;11.03;99.82
81812;BME280;71243;51.848;5.768;2024-02-04T01:48:51;102410.22;;;10.97;100.00
81812;BME280;71243;51.848;5.768;2024-02-04T01:51:18;102401.53;;;10.95;100.00
81812;BME280;71243;51.848;5.768;2024-02-04T01:53:45;102396.69;;;10.89;100.00
81812;BME280;71243;51.848;5.768;2024-02-04T01:56:12;102402.94;;;10.88;100.00
81812;BME280;71243;51.848;5.768;2024-02-04T01:58:38;102404.41;;;10.92;100.00
81812;BME280;71243;51.848;5.768;2024-02-04T02:01:03;102390.63;;;10.99;100.00
81812;BME280;71243;51.848;5.768;2024-02-04T02:03:31;102384.59;;;10.97;100.00
81812;BME280;71243;51.848;5.768;2024-02-04T02:05:57;102385.44;;;10.98;100.00
81812;BME280;71243;51.848;5.768;2024-02-04T02:08:23;102396.13;;;10.96;99.96
81812;BME280;71243;51.848;5.768;2024-02-04T02:10:50;102394.34;;;10.97;100.00
81812;BME280;71243;51.848;5.768;2024-02-04T02:13:28;102404.19;;;10.95;99.97
81812;BME280;71243;51.848;5.768;2024-02-04T02:15:59;102402.72;;;10.91;100.00
81812;BME280;71243;51.848;5.768;2024-02-04T02:18:37;102405.59;;;10.88;100.00
81812;BME280;71243;51.848;5.768;2024-02-04T02:21:36;102399.69;;;10.84;100.00
81812;BME280;71243;51.848;5.768;2024-02-04T02:26:33;102398.84;;;10.84;100.00
81812;BME280;71243;51.848;5.768;2024-02-04T02:28:59;102403.25;;;10.83;100.00
81812;BME280;71243;51.848;5.768;2024-02-04T02:31:24;102395.75;;;10.90;100.00
81812;BME280;71243;51.848;5.768;2024-02-04T02:33:50;102391.88;;;10.83;100.00
81812;BME280;71243;51.848;5.768;2024-02-04T02:36:21;102399.06;;;10.81;100.00
81812;BME280;71243;51.848;5.768;2024-02-04T02:39:14;102383.81;;;10.84;100.00
81812;BME280;71243;51.848;5.768;2024-02-04T02:41:42;102381.63;;;10.78;100.00
81812;BME280;71243;51.848;5.768;2024-02-04T02:44:08;102368.75;;;10.74;100.00
81812;BME280;71243;51.848;5.768;2024-02-04T02:46:38;102372.25;;;10.74;100.00
81812;BME280;71243;51.848;5.768;2024-02-04T02:49:04;102387.25;;;10.74;100.00
81812;BME280;71243;51.848;5.768;2024-02-04T02:51:29;102375.75;;;10.62;100.00
81812;BME280;71243;51.848;5.768;2024-02-04T02:53:55;102374.25;;;10.71;100.00
81812;BME280;71243;51.848;5.768;2024-02-04T02:56:20;102371.28;;;10.75;100.00
81812;BME280;71243;51.848;5.768;2024-02-04T02:58:45;102368.88;;;10.72;100.00
81812;BME280;71243;51.848;5.768;2024-02-04T03:01:11;102369.28;;;10.66;100.00
81812;BME280;71243;51.848;5.768;2024-02-04T03:03:36;102370.16;;;10.67;100.00
81812;BME280;71243;51.848;5.768;2024-02-04T03:06:01;102375.44;;;10.67;100.00
81812;BME280;71243;51.848;5.768;2024-02-04T03:08:26;102370.25;;;10.65;100.00
81812;BME280;71243;51.848;5.768;2024-02-04T03:10:52;102372.91;;;10.65;100.00
81812;BME280;71243;51.848;5.768;2024-02-04T03:13:17;102368.66;;;10.63;100.00
81812;BME280;71243;51.848;5.768;2024-02-04T03:15:42;102370.03;;;10.68;100.00
81812;BME280;71243;51.848;5.768;2024-02-04T03:18:08;102361.72;;;10.62;100.00
81812;BME280;71243;51.848;5.768;2024-02-04T03:20:33;102366.25;;;10.60;100.00
81812;BME280;71243;51.848;5.768;2024-02-04T03:22:58;102376.84;;;10.60;100.00
81812;BME280;71243;51.848;5.768;2024-02-04T03:25:24;102376.59;;;10.63;100.00
81812;BME280;71243;51.848;5.768;2024-02-04T03:27:49;102373.09;;;10.62;100.00
81812;BME280;71243;51.848;5.768;2024-02-04T03:30:14;102363.38;;;10.63;100.00
81812;BME280;71243;51.848;5.768;2024-02-04T03:32:40;102376.84;;;10.60;100.00
81812;BME280;71243;51.848;5.768;2024-02-04T03:35:05;102374.94;;;10.62;100.00
81812;BME280;71243;51.848;5.768;2024-02-04T03:37:30;102376.72;;;10.61;100.00
81812;BME280;71243;51.848;5.768;2024-02-04T03:39:56;102376.72;;;10.61;100.00
81812;BME280;71243;51.848;5.768;2024-02-04T03:42:24;102380.53;;;10.57;100.00
81812;BME280;71243;51.848;5.768;2024-02-04T03:44:49;102381.66;;;10.66;100.00
81812;BME280;71243;51.848;5.768;2024-02-04T03:47:15;102390.56;;;10.65;100.00
81812;BME280;71243;51.848;5.768;2024-02-04T03:49:40;102389.53;;;10.55;100.00
81812;BME280;71243;51.848;5.768;2024-02-04T03:52:05;102393.53;;;10.60;100.00
81812;BME280;71243;51.848;5.768;2024-02-04T03:54:33;102374.81;;;10.63;100.00
81812;BME280;71243;51.848;5.768;2024-02-04T03:56:58;102367.94;;;10.61;100.00
81812;BME280;71243;51.848;5.768;2024-02-04T03:59:24;102368.78;;;10.61;99.81
81812;BME280;71243;51.848;5.768;2024-02-04T04:01:50;102375.03;;;10.60;99.58
81812;BME280;71243;51.848;5.768;2024-02-04T04:04:16;102377.22;;;10.66;98.98
81812;BME280;71243;51.848;5.768;2024-02-04T04:06:42;102384.28;;;10.66;98.86
81812;BME280;71243;51.848;5.768;2024-02-04T04:09:07;102396.69;;;10.65;98.78
81812;BME280;71243;51.848;5.768;2024-02-04T04:11:33;102397.34;;;10.56;99.31
81812;BME280;71243;51.848;5.768;2024-02-04T04:13:58;102404.66;;;10.53;99.31
81812;BME280;71243;51.848;5.768;2024-02-04T04:16:23;102397.66;;;10.52;99.37
81812;BME280;71243;51.848;5.768;2024-02-04T04:18:49;102388.69;;;10.54;99.13
81812;BME280;71243;51.848;5.768;2024-02-04T04:21:14;102387.09;;;10.52;99.32
81812;BME280;71243;51.848;5.768;2024-02-04T04:23:40;102370.69;;;10.59;98.93
81812;BME280;71243;51.848;5.768;2024-02-04T04:26:05;102365.63;;;10.56;98.88
81812;BME280;71243;51.848;5.768;2024-02-04T04:28:31;102367.53;;;10.54;98.77
81812;BME280;71243;51.848;5.768;2024-02-04T04:30:56;102359.50;;;10.56;99.01
81812;BME280;71243;51.848;5.768;2024-02-04T04:33:22;102365.28;;;10.61;98.87
81812;BME280;71243;51.848;5.768;2024-02-04T04:35:47;102359.50;;;10.56;99.47
81812;BME280;71243;51.848;5.768;2024-02-04T04:38:12;102352.66;;;10.53;99.27
81812;BME280;71243;51.848;5.768;2024-02-04T04:40:38;102336.19;;;10.50;99.98
81812;BME280;71243;51.848;5.768;2024-02-04T04:43:03;102341.00;;;10.56;99.65
81812;BME280;71243;51.848;5.768;2024-02-04T04:45:31;102345.66;;;10.52;99.24
81812;BME280;71243;51.848;5.768;2024-02-04T04:47:57;102336.81;;;10.53;99.60
81812;BME280;71243;51.848;5.768;2024-02-04T04:50:25;102344.75;;;10.64;99.06
81812;BME280;71243;51.848;5.768;2024-02-04T04:52:50;102344.16;;;10.61;99.32
81812;BME280;71243;51.848;5.768;2024-02-04T04:55:16;102341.00;;;10.56;99.39
81812;BME280;71243;51.848;5.768;2024-02-04T04:57:44;102331.34;;;10.67;98.78
81812;BME280;71243;51.848;5.768;2024-02-04T05:00:10;102328.53;;;10.58;99.40
81812;BME280;71243;51.848;5.768;2024-02-04T05:02:36;102311.00;;;10.57;99.47
81812;BME280;71243;51.848;5.768;2024-02-04T05:05:01;102312.66;;;10.58;99.99
81812;BME280;71243;51.848;5.768;2024-02-04T05:07:27;102311.94;;;10.56;100.00
81812;BME280;71243;51.848;5.768;2024-02-04T05:09:52;102313.72;;;10.55;100.00
81812;BME280;71243;51.848;5.768;2024-02-04T05:12:17;102302.44;;;10.53;100.00
81812;BME280;71243;51.848;5.768;2024-02-04T05:14:46;102302.09;;;10.58;100.00
81812;BME280;71243;51.848;5.768;2024-02-04T05:17:11;102324.91;;;10.59;100.00
81812;BME280;71243;51.848;5.768;2024-02-04T05:19:36;102315.69;;;10.64;100.00
81812;BME280;71243;51.848;5.768;2024-02-04T05:22:02;102320.47;;;10.59;100.00
81812;BME280;71243;51.848;5.768;2024-02-04T05:24:27;102311.00;;;10.57;100.00
81812;BME280;71243;51.848;5.768;2024-02-04T05:26:53;102302.75;;;10.49;100.00
81812;BME280;71243;51.848;5.768;2024-02-04T05:29:18;102311.00;;;10.57;100.00
81812;BME280;71243;51.848;5.768;2024-02-04T05:31:44;102314.47;;;10.57;100.00
81812;BME280;71243;51.848;5.768;2024-02-04T05:34:12;102317.72;;;10.61;100.00
81812;BME280;71243;51.848;5.768;2024-02-04T05:36:38;102312.56;;;10.59;100.00
81812;BME280;71243;51.848;5.768;2024-02-04T05:39:15;102306.94;;;10.64;100.00
81812;BME280;71243;51.848;5.768;2024-02-04T05:41:41;102314.13;;;10.62;100.00
81812;BME280;71243;51.848;5.768;2024-02-04T05:44:07;102326.16;;;10.66;100.00
81812;BME280;71243;51.848;5.768;2024-02-04T05:46:33;102330.38;;;10.68;100.00
81812;BME280;71243;51.848;5.768;2024-02-04T05:48:58;102339.03;;;10.70;100.00
81812;BME280;71243;51.848;5.768;2024-02-04T05:51:27;102322.06;;;10.62;100.00
81812;BME280;71243;51.848;5.768;2024-02-04T05:53:52;102309.13;;;10.70;100.00
81812;BME280;71243;51.848;5.768;2024-02-04T05:56:21;102301.97;;;10.59;100.00
81812;BME280;71243;51.848;5.768;2024-02-04T05:58:47;102300.69;;;10.65;100.00
81812;BME280;71243;51.848;5.768;2024-02-04T06:01:12;102290.97;;;10.65;100.00
81812;BME280;71243;51.848;5.768;2024-02-04T06:03:38;102293.00;;;10.62;100.00
81812;BME280;71243;51.848;5.768;2024-02-04T06:06:03;102288.16;;;10.56;100.00
81812;BME280;71243;51.848;5.768;2024-02-04T06:08:29;102290.66;;;10.57;100.00
81812;BME280;71243;51.848;5.768;2024-02-04T06:10:54;102310.03;;;10.58;100.00
81812;BME280;71243;51.848;5.768;2024-02-04T06:13:20;102310.47;;;10.52;100.00
81812;BME280;71243;51.848;5.768;2024-02-04T06:15:45;102310.03;;;10.58;100.00
81812;BME280;71243;51.848;5.768;2024-02-04T06:18:10;102301.13;;;10.59;100.00
81812;BME280;71243;51.848;5.768;2024-02-04T06:20:36;102301.13;;;10.59;100.00
81812;BME280;71243;51.848;5.768;2024-02-04T06:23:01;102279.78;;;10.62;100.00
81812;BME280;71243;51.848;5.768;2024-02-04T06:25:26;102278.25;;;10.47;100.00
81812;BME280;71243;51.848;5.768;2024-02-04T06:27:51;102274.31;;;10.52;100.00
81812;BME280;71243;51.848;5.768;2024-02-04T06:30:17;102286.47;;;10.55;100.00
81812;BME280;71243;51.848;5.768;2024-02-04T06:32:42;102277.81;;;10.53;100.00
81812;BME280;71243;51.848;5.768;2024-02-04T06:35:07;102288.00;;;10.46;100.00
81812;BME280;71243;51.848;5.768;2024-02-04T06:37:33;102281.06;;;10.56;100.00
81812;BME280;71243;51.848;5.768;2024-02-04T06:39:58;102278.88;;;10.50;100.00
81812;BME280;71243;51.848;5.768;2024-02-04T06:42:23;102273.25;;;10.55;100.00
81812;BME280;71243;51.848;5.768;2024-02-04T06:44:49;102270.72;;;10.53;100.00
81812;BME280;71243;51.848;5.768;2024-02-04T06:47:14;102275.72;;;10.45;100.00
81812;BME280;71243;51.848;5.768;2024-02-04T06:49:48;102271.78;;;10.51;100.00
81812;BME280;71243;51.848;5.768;2024-02-04T06:52:13;102267.25;;;10.53;100.00
81812;BME280;71243;51.848;5.768;2024-02-04T06:54:39;102266.16;;;10.55;100.00
81812;BME280;71243;51.848;5.768;2024-02-04T06:57:04;102259.00;;;10.45;100.00
81812;BME280;71243;51.848;5.768;2024-02-04T06:59:29;102261.09;;;10.52;100.00
81812;BME280;71243;51.848;5.768;2024-02-04T07:01:55;102265.88;;;10.47;100.00
81812;BME280;71243;51.848;5.768;2024-02-04T07:04:20;102275.78;;;10.56;100.00
81812;BME280;71243;51.848;5.768;2024-02-04T07:06:45;102273.75;;;10.60;100.00
81812;BME280;71243;51.848;5.768;2024-02-04T07:09:10;102281.06;;;10.56;100.00
81812;BME280;71243;51.848;5.768;2024-02-04T07:11:36;102267.00;;;10.56;100.00
81812;BME280;71243;51.848;5.768;2024-02-04T07:14:01;102287.59;;;10.63;99.76
81812;BME280;71243;51.848;5.768;2024-02-04T07:16:26;102287.47;;;10.65;99.48
81812;BME280;71243;51.848;5.768;2024-02-04T07:18:51;102287.47;;;10.65;99.43
81812;BME280;71243;51.848;5.768;2024-02-04T07:21:17;102274.13;;;10.66;99.53
81812;BME280;71243;51.848;5.768;2024-02-04T07:23:42;102284.38;;;10.71;99.28
81812;BME280;71243;51.848;5.768;2024-02-04T07:26:08;102276.28;;;10.61;99.25
81812;BME280;71243;51.848;5.768;2024-02-04T07:28:36;102280.50;;;10.64;99.72
81812;BME280;71243;51.848;5.768;2024-02-04T07:31:01;102275.31;;;10.62;99.33
81812;BME280;71243;51.848;5.768;2024-02-04T07:33:27;102278.81;;;10.63;99.00
81812;BME280;71243;51.848;5.768;2024-02-04T07:35:52;102277.16;;;10.73;98.81
81812;BME280;71243;51.848;5.768;2024-02-04T07:38:20;102284.59;;;10.68;99.07
81812;BME280;71243;51.848;5.768;2024-02-04T07:40:45;102283.16;;;10.64;99.07
81812;BME280;71243;51.848;5.768;2024-02-04T07:43:11;102287.97;;;10.70;98.80
81812;BME280;71243;51.848;5.768;2024-02-04T07:45:36;102273.63;;;10.61;99.03
81812;BME280;71243;51.848;5.768;2024-02-04T07:48:01;102283.84;;;10.66;98.89
81812;BME280;71243;51.848;5.768;2024-02-04T07:50:26;102281.34;;;10.64;99.15
81812;BME280;71243;51.848;5.768;2024-02-04T07:52:55;102269.59;;;10.68;98.83
81812;BME280;71243;51.848;5.768;2024-02-04T07:55:20;102279.91;;;10.71;98.47
81812;BME280;71243;51.848;5.768;2024-02-04T07:57:45;102270.88;;;10.63;98.07
81812;BME280;71243;51.848;5.768;2024-02-04T08:00:13;102282.91;;;10.67;97.74
81812;BME280;71243;51.848;5.768;2024-02-04T08:02:38;102279.03;;;10.60;98.02
81812;BME280;71243;51.848;5.768;2024-02-04T08:05:04;102278.44;;;10.56;97.62
81812;BME280;71243;51.848;5.768;2024-02-04T08:07:30;102279.78;;;10.62;96.97
81812;BME280;71243;51.848;5.768;2024-02-04T08:09:55;102278.47;;;10.67;96.88
81812;BME280;71243;51.848;5.768;2024-02-04T08:12:20;102278.97;;;10.72;96.63
81812;BME280;71243;51.848;5.768;2024-02-04T08:14:46;102276.91;;;10.65;96.57
81812;BME280;71243;51.848;5.768;2024-02-04T08:17:11;102274.50;;;10.62;96.78
81812;BME280;71243;51.848;5.768;2024-02-04T08:19:39;102264.13;;;10.59;96.61
81812;BME280;71243;51.848;5.768;2024-02-04T08:22:04;102277.56;;;10.56;96.56
81812;BME280;71243;51.848;5.768;2024-02-04T08:24:30;102273.69;;;10.49;96.92
81812;BME280;71243;51.848;5.768;2024-02-04T08:26:55;102279.16;;;10.58;96.65
81812;BME280;71243;51.848;5.768;2024-02-04T08:29:20;102276.84;;;10.54;96.86
81812;BME280;71243;51.848;5.768;2024-02-04T08:31:58;102275.47;;;10.48;97.44
81812;BME280;71243;51.848;5.768;2024-02-04T08:34:23;102274.25;;;10.41;97.68
81812;BME280;71243;51.848;5.768;2024-02-04T08:36:48;102274.09;;;10.32;97.98
81812;BME280;71243;51.848;5.768;2024-02-04T08:39:13;102272.50;;;10.29;98.08
81812;BME280;71243;51.848;5.768;2024-02-04T08:41:38;102263.59;;;10.43;97.88
81812;BME280;71243;51.848;5.768;2024-02-04T08:44:04;102273.44;;;10.41;98.00
81812;BME280;71243;51.848;5.768;2024-02-04T08:46:29;102263.47;;;10.44;98.17
81812;BME280;71243;51.848;5.768;2024-02-04T08:48:54;102265.16;;;10.45;98.59
81812;BME280;71243;51.848;5.768;2024-02-04T08:51:20;102268.28;;;10.50;98.63
81812;BME280;71243;51.848;5.768;2024-02-04T08:53:45;102268.03;;;10.42;99.15
81812;BME280;71243;51.848;5.768;2024-02-04T08:56:10;102260.72;;;10.46;100.00
81812;BME280;71243;51.848;5.768;2024-02-04T08:58:35;102254.25;;;10.50;100.00
81812;BME280;71243;51.848;5.768;2024-02-04T09:01:01;102262.88;;;10.52;100.00
81812;BME280;71243;51.848;5.768;2024-02-04T09:03:26;102256.09;;;10.60;100.00
81812;BME280;71243;51.848;5.768;2024-02-04T09:05:51;102257.66;;;10.63;100.00
81812;BME280;71243;51.848;5.768;2024-02-04T09:08:17;102249.13;;;10.59;100.00
81812;BME280;71243;51.848;5.768;2024-02-04T09:10:42;102241.81;;;10.63;100.00
81812;BME280;71243;51.848;5.768;2024-02-04T09:13:10;102235.22;;;10.68;100.00
81812;BME280;71243;51.848;5.768;2024-02-04T09:15:35;102245.44;;;10.73;99.63
81812;BME280;71243;51.848;5.768;2024-02-04T09:18:03;102253.28;;;10.74;99.69
81812;BME280;71243;51.848;5.768;2024-02-04T09:20:28;102256.00;;;10.73;99.50
81812;BME280;71243;51.848;5.768;2024-02-04T09:22:53;102250.72;;;10.73;99.01
81812;BME280;71243;51.848;5.768;2024-02-04T09:25:19;102245.84;;;10.79;99.10
81812;BME280;71243;51.848;5.768;2024-02-04T09:27:44;102249.84;;;10.85;98.90
81812;BME280;71243;51.848;5.768;2024-02-04T09:30:13;102254.75;;;10.89;98.56
81812;BME280;71243;51.848;5.768;2024-02-04T09:32:38;102245.97;;;10.89;98.35
81812;BME280;71243;51.848;5.768;2024-02-04T09:35:04;102255.50;;;10.91;98.15
81812;BME280;71243;51.848;5.768;2024-02-04T09:37:29;102240.56;;;10.90;98.48
81812;BME280;71243;51.848;5.768;2024-02-04T09:39:54;102253.47;;;10.95;98.01
81812;BME280;71243;51.848;5.768;2024-02-04T09:42:21;102248.78;;;10.98;98.07
81812;BME280;71243;51.848;5.768;2024-02-04T09:44:47;102254.69;;;11.02;97.94
81812;BME280;71243;51.848;5.768;2024-02-04T09:47:13;102257.94;;;11.05;97.93
81812;BME280;71243;51.848;5.768;2024-02-04T09:49:39;102256.75;;;11.10;97.81
81812;BME280;71243;51.848;5.768;2024-02-04T09:52:07;102252.28;;;11.10;97.64
81812;BME280;71243;51.848;5.768;2024-02-04T09:54:38;102257.09;;;11.16;97.50
81812;BME280;71243;51.848;5.768;2024-02-04T09:57:07;102260.44;;;11.07;97.25
81812;BME280;71243;51.848;5.768;2024-02-04T09:59:33;102256.13;;;11.17;97.27
81812;BME280;71243;51.848;5.768;2024-02-04T10:01:58;102263.88;;;11.20;97.01
81812;BME280;71243;51.848;5.768;2024-02-04T10:04:24;102255.81;;;11.22;96.99
81812;BME280;71243;51.848;5.768;2024-02-04T10:06:49;102265.16;;;11.26;97.22
81812;BME280;71243;51.848;5.768;2024-02-04T10:09:14;102271.44;;;11.25;97.29
81812;BME280;71243;51.848;5.768;2024-02-04T10:11:40;102262.66;;;11.24;97.17
81812;BME280;71243;51.848;5.768;2024-02-04T10:14:05;102261.22;;;11.31;96.77
81812;BME280;71243;51.848;5.768;2024-02-04T10:16:31;102261.09;;;11.33;96.88
81812;BME280;71243;51.848;5.768;2024-02-04T10:18:56;102259.78;;;11.38;96.43
81812;BME280;71243;51.848;5.768;2024-02-04T10:21:22;102261.59;;;11.38;96.26
81812;BME280;71243;51.848;5.768;2024-02-04T10:23:47;102266.28;;;11.34;96.76
81812;BME280;71243;51.848;5.768;2024-02-04T10:26:13;102268.81;;;11.36;96.09
81812;BME280;71243;51.848;5.768;2024-02-04T10:28:39;102276.97;;;11.33;96.20
81812;BME280;71243;51.848;5.768;2024-02-04T10:31:05;102262.66;;;11.35;95.97
81812;BME280;71243;51.848;5.768;2024-02-04T10:33:30;102273.72;;;11.40;95.70
81812;BME280;71243;51.848;5.768;2024-02-04T10:35:56;102264.59;;;11.33;94.77
81812;BME280;71243;51.848;5.768;2024-02-04T10:38:24;102276.03;;;11.34;94.93
81812;BME280;71243;51.848;5.768;2024-02-04T10:40:53;102265.31;;;11.35;94.94
81812;BME280;71243;51.848;5.768;2024-02-04T10:43:18;102275.41;;;11.30;94.22
81812;BME280;71243;51.848;5.768;2024-02-04T10:45:45;102271.19;;;11.28;94.79
81812;BME280;71243;51.848;5.768;2024-02-04T10:48:11;102279.00;;;11.29;94.66
81812;BME280;71243;51.848;5.768;2024-02-04T10:50:37;102273.00;;;11.27;94.94
81812;BME280;71243;51.848;5.768;2024-02-04T10:53:05;102282.13;;;11.23;95.71
81812;BME280;71243;51.848;5.768;2024-02-04T10:55:40;102274.66;;;11.17;96.63
81812;BME280;71243;51.848;5.768;2024-02-04T10:58:06;102282.94;;;11.13;97.34
81812;BME280;71243;51.848;5.768;2024-02-04T11:00:32;102290.78;;;11.14;97.89
81812;BME280;71243;51.848;5.768;2024-02-04T11:02:59;102284.25;;;11.07;98.54
81812;BME280;71243;51.848;5.768;2024-02-04T11:05:24;102272.81;;;11.06;99.23
81812;BME280;71243;51.848;5.768;2024-02-04T11:07:51;102265.69;;;10.96;100.00
81812;BME280;71243;51.848;5.768;2024-02-04T11:10:16;102261.75;;;11.01;100.00
81812;BME280;71243;51.848;5.768;2024-02-04T11:12:42;102253.25;;;11.09;100.00
81812;BME280;71243;51.848;5.768;2024-02-04T11:15:10;102254.19;;;10.97;100.00
81812;BME280;71243;51.848;5.768;2024-02-04T11:23:41;102240.63;;;11.13;100.00
81812;BME280;71243;51.848;5.768;2024-02-04T11:26:11;102240.72;;;11.00;100.00
81812;BME280;71243;51.848;5.768;2024-02-04T11:28:37;102243.38;;;11.00;100.00
81812;BME280;71243;51.848;5.768;2024-02-04T11:31:03;102261.28;;;10.96;100.00
81812;BME280;71243;51.848;5.768;2024-02-04T11:33:28;102248.56;;;11.13;100.00
81812;BME280;71243;51.848;5.768;2024-02-04T11:38:37;102238.84;;;11.13;100.00
81812;BME280;71243;51.848;5.768;2024-02-04T11:41:03;102234.50;;;11.12;100.00
81812;BME280;71243;51.848;5.768;2024-02-04T11:43:31;102241.47;;;11.13;100.00
81812;BME280;71243;51.848;5.768;2024-02-04T11:45:57;102237.25;;;11.11;100.00
81812;BME280;71243;51.848;5.768;2024-02-04T11:48:30;102237.63;;;11.06;100.00
81812;BME280;71243;51.848;5.768;2024-02-04T11:50:55;102224.41;;;11.06;100.00
81812;BME280;71243;51.848;5.768;2024-02-04T11:53:21;102220.53;;;11.10;100.00
81812;BME280;71243;51.848;5.768;2024-02-04T11:55:52;102204.91;;;11.07;100.00
81812;BME280;71243;51.848;5.768;2024-02-04T11:58:18;102216.78;;;11.01;100.00
81812;BME280;71243;51.848;5.768;2024-02-04T12:00:44;102208.88;;;11.01;100.00
81812;BME280;71243;51.848;5.768;2024-02-04T12:03:10;102203.69;;;11.00;100.00
81812;BME280;71243;51.848;5.768;2024-02-04T12:05:37;102202.38;;;11.05;100.00
81812;BME280;71243;51.848;5.768;2024-02-04T12:08:07;102208.88;;;11.01;100.00
81812;BME280;71243;51.848;5.768;2024-02-04T12:10:34;102211.63;;;11.00;100.00
81812;BME280;71243;51.848;5.768;2024-02-04T12:13:02;102207.78;;;10.93;100.00
81812;BME280;71243;51.848;5.768;2024-02-04T12:15:28;102207.06;;;11.02;100.00
81812;BME280;71243;51.848;5.768;2024-02-04T12:17:54;102215.34;;;10.97;100.00
81812;BME280;71243;51.848;5.768;2024-02-04T12:20:19;102212.69;;;10.97;100.00
81812;BME280;71243;51.848;5.768;2024-02-04T12:22:44;102204.78;;;11.08;100.00
81812;BME280;71243;51.848;5.768;2024-02-04T12:25:10;102203.00;;;11.09;100.00
81812;BME280;71243;51.848;5.768;2024-02-04T12:27:36;102195.31;;;11.06;100.00
81812;BME280;71243;51.848;5.768;2024-02-04T12:30:01;102192.06;;;11.02;100.00
81812;BME280;71243;51.848;5.768;2024-02-04T12:32:27;102190.22;;;11.03;100.00
81812;BME280;71243;51.848;5.768;2024-02-04T12:34:52;102196.50;;;11.13;100.00
81812;BME280;71243;51.848;5.768;2024-02-04T12:37:17;102203.84;;;11.10;100.00
81812;BME280;71243;51.848;5.768;2024-02-04T12:39:42;102200.59;;;11.17;100.00
81812;BME280;71243;51.848;5.768;2024-02-04T12:42:09;102188.91;;;11.08;100.00
81812;BME280;71243;51.848;5.768;2024-02-04T12:44:34;102194.09;;;11.10;100.00
81812;BME280;71243;51.848;5.768;2024-02-04T12:47:00;102196.28;;;11.16;99.79
81812;BME280;71243;51.848;5.768;2024-02-04T12:49:25;102187.38;;;11.06;99.59